sensor_id;sensor_type;location;lat;lon;timestamp;temperature;humidity
19403;DHT22;9837;48.888;8.998;2023-04-03T00:01:23;7.60;59.80
19403;DHT22;9837;48.888;8.998;2023-04-03T00:03:48;7.50;59.80
19403;DHT22;9837;48.888;8.998;2023-04-03T00:08:40;7.60;59.70
19403;DHT22;9837;48.888;8.998;2023-04-03T00:11:06;7.80;59.50
19403;DHT22;9837;48.888;8.998;2023-04-03T00:13:33;7.90;59.40
19403;DHT22;9837;48.888;8.998;2023-04-03T00:15:59;7.90;58.90
19403;DHT22;9837;48.888;8.998;2023-04-03T00:18:24;8.10;58.10
19403;DHT22;9837;48.888;8.998;2023-04-03T00:20:50;9.40;59.30
19403;DHT22;9837;48.888;8.998;2023-04-03T00:23:16;7.90;58.90
19403;DHT22;9837;48.888;8.998;2023-04-03T00:25:42;8.00;58.60
19403;DHT22;9837;48.888;8.998;2023-04-03T00:28:08;8.00;59.10
19403;DHT22;9837;48.888;8.998;2023-04-03T00:30:33;7.70;59.00
19403;DHT22;9837;48.888;8.998;2023-04-03T00:35:26;7.50;59.20
19403;DHT22;9837;48.888;8.998;2023-04-03T00:37:53;7.60;60.00
19403;DHT22;9837;48.888;8.998;2023-04-03T00:40:20;7.80;58.70
19403;DHT22;9837;48.888;8.998;2023-04-03T00:42:48;7.90;58.50
19403;DHT22;9837;48.888;8.998;2023-04-03T00:45:26;8.00;58.40
19403;DHT22;9837;48.888;8.998;2023-04-03T00:47:53;8.00;58.90
19403;DHT22;9837;48.888;8.998;2023-04-03T00:50:19;10.40;60.20
19403;DHT22;9837;48.888;8.998;2023-04-03T00:52:45;7.90;59.10
19403;DHT22;9837;48.888;8.998;2023-04-03T00:55:13;8.00;59.10
19403;DHT22;9837;48.888;8.998;2023-04-03T00:57:40;8.10;58.60
19403;DHT22;9837;48.888;8.998;2023-04-03T01:00:10;8.30;57.80
19403;DHT22;9837;48.888;8.998;2023-04-03T01:02:36;8.40;57.70
19403;DHT22;9837;48.888;8.998;2023-04-03T01:05:03;9.90;58.90
19403;DHT22;9837;48.888;8.998;2023-04-03T01:07:31;8.40;57.90
19403;DHT22;9837;48.888;8.998;2023-04-03T01:10:01;8.40;58.00
19403;DHT22;9837;48.888;8.998;2023-04-03T01:12:30;8.50;57.10
19403;DHT22;9837;48.888;8.998;2023-04-03T01:14:58;8.60;57.00
19403;DHT22;9837;48.888;8.998;2023-04-03T01:17:40;8.60;57.50
19403;DHT22;9837;48.888;8.998;2023-04-03T01:25:44;8.60;57.50
19403;DHT22;9837;48.888;8.998;2023-04-03T01:28:13;8.60;57.50
19403;DHT22;9837;48.888;8.998;2023-04-03T01:30:53;8.60;56.80
19403;DHT22;9837;48.888;8.998;2023-04-03T01:35:47;8.50;57.10
19403;DHT22;9837;48.888;8.998;2023-04-03T01:38:13;8.50;57.60
19403;DHT22;9837;48.888;8.998;2023-04-03T01:40:38;8.50;57.80
19403;DHT22;9837;48.888;8.998;2023-04-03T01:43:04;8.30;58.10
19403;DHT22;9837;48.888;8.998;2023-04-03T01:47:56;8.10;58.40
19403;DHT22;9837;48.888;8.998;2023-04-03T01:50:21;8.00;58.50
19403;DHT22;9837;48.888;8.998;2023-04-03T01:55:13;7.80;59.10
19403;DHT22;9837;48.888;8.998;2023-04-03T01:57:38;7.80;58.70
19403;DHT22;9837;48.888;8.998;2023-04-03T02:00:05;7.80;59.30
19403;DHT22;9837;48.888;8.998;2023-04-03T02:02:30;7.50;59.40
19403;DHT22;9837;48.888;8.998;2023-04-03T02:04:56;7.50;59.90
19403;DHT22;9837;48.888;8.998;2023-04-03T02:07:21;7.50;59.50
19403;DHT22;9837;48.888;8.998;2023-04-03T02:09:47;7.40;59.90
19403;DHT22;9837;48.888;8.998;2023-04-03T02:12:12;7.50;59.70
19403;DHT22;9837;48.888;8.998;2023-04-03T02:14:38;7.40;60.20
19403;DHT22;9837;48.888;8.998;2023-04-03T02:17:03;7.60;59.80
19403;DHT22;9837;48.888;8.998;2023-04-03T02:19:34;7.60;59.50
19403;DHT22;9837;48.888;8.998;2023-04-03T02:21:59;7.70;59.50
19403;DHT22;9837;48.888;8.998;2023-04-03T02:24:25;7.80;58.30
19403;DHT22;9837;48.888;8.998;2023-04-03T02:26:50;7.70;58.30
19403;DHT22;9837;48.888;8.998;2023-04-03T02:29:16;7.70;58.80
19403;DHT22;9837;48.888;8.998;2023-04-03T02:31:41;7.60;59.00
19403;DHT22;9837;48.888;8.998;2023-04-03T02:34:07;7.50;59.50
19403;DHT22;9837;48.888;8.998;2023-04-03T02:36:32;7.50;59.60
19403;DHT22;9837;48.888;8.998;2023-04-03T02:38:58;7.70;59.10
19403;DHT22;9837;48.888;8.998;2023-04-03T02:41:23;7.60;57.70
19403;DHT22;9837;48.888;8.998;2023-04-03T02:43:51;7.60;58.20
19403;DHT22;9837;48.888;8.998;2023-04-03T02:46:16;7.50;58.00
19403;DHT22;9837;48.888;8.998;2023-04-03T02:48:42;7.60;58.30
19403;DHT22;9837;48.888;8.998;2023-04-03T02:51:07;7.70;58.50
19403;DHT22;9837;48.888;8.998;2023-04-03T02:53:33;7.70;58.40
19403;DHT22;9837;48.888;8.998;2023-04-03T02:58:24;7.40;57.50
19403;DHT22;9837;48.888;8.998;2023-04-03T03:00:51;7.30;58.30
19403;DHT22;9837;48.888;8.998;2023-04-03T03:03:17;7.30;57.50
19403;DHT22;9837;48.888;8.998;2023-04-03T03:05:42;7.30;58.00
19403;DHT22;9837;48.888;8.998;2023-04-03T03:10:34;7.10;57.40
19403;DHT22;9837;48.888;8.998;2023-04-03T03:12:59;7.10;58.30
19403;DHT22;9837;48.888;8.998;2023-04-03T03:22:44;7.00;56.60
19403;DHT22;9837;48.888;8.998;2023-04-03T03:25:09;6.70;57.40
19403;DHT22;9837;48.888;8.998;2023-04-03T03:27:35;6.50;58.10
19403;DHT22;9837;48.888;8.998;2023-04-03T03:30:00;6.60;58.50
19403;DHT22;9837;48.888;8.998;2023-04-03T03:32:26;6.70;58.20
19403;DHT22;9837;48.888;8.998;2023-04-03T03:34:51;6.70;58.70
19403;DHT22;9837;48.888;8.998;2023-04-03T03:37:17;6.40;58.30
19403;DHT22;9837;48.888;8.998;2023-04-03T03:39:42;6.40;58.50
19403;DHT22;9837;48.888;8.998;2023-04-03T03:42:08;6.30;58.40
19403;DHT22;9837;48.888;8.998;2023-04-03T03:44:33;6.30;58.70
19403;DHT22;9837;48.888;8.998;2023-04-03T03:46:59;6.20;59.30
19403;DHT22;9837;48.888;8.998;2023-04-03T03:49:25;6.50;59.10
19403;DHT22;9837;48.888;8.998;2023-04-03T03:51:50;6.90;58.00
19403;DHT22;9837;48.888;8.998;2023-04-03T03:56:42;7.20;56.60
19403;DHT22;9837;48.888;8.998;2023-04-03T03:59:08;7.20;57.30
19403;DHT22;9837;48.888;8.998;2023-04-03T04:01:33;7.30;57.00
19403;DHT22;9837;48.888;8.998;2023-04-03T04:03:59;6.90;57.30
19403;DHT22;9837;48.888;8.998;2023-04-03T04:06:25;6.90;57.90
19403;DHT22;9837;48.888;8.998;2023-04-03T04:11:17;6.70;58.00
19403;DHT22;9837;48.888;8.998;2023-04-03T04:13:42;6.60;58.60
19403;DHT22;9837;48.888;8.998;2023-04-03T04:16:08;6.30;59.00
19403;DHT22;9837;48.888;8.998;2023-04-03T04:18:35;6.50;59.50
19403;DHT22;9837;48.888;8.998;2023-04-03T04:21:00;6.60;59.20
19403;DHT22;9837;48.888;8.998;2023-04-03T04:23:26;6.60;57.80
19403;DHT22;9837;48.888;8.998;2023-04-03T04:28:17;6.40;58.30
19403;DHT22;9837;48.888;8.998;2023-04-03T04:33:09;6.70;57.80
19403;DHT22;9837;48.888;8.998;2023-04-03T04:35:35;6.90;57.20
19403;DHT22;9837;48.888;8.998;2023-04-03T04:38:00;7.00;57.00
19403;DHT22;9837;48.888;8.998;2023-04-03T04:40:26;7.00;57.60
19403;DHT22;9837;48.888;8.998;2023-04-03T04:42:52;7.00;57.40
19403;DHT22;9837;48.888;8.998;2023-04-03T04:45:18;7.10;57.00
19403;DHT22;9837;48.888;8.998;2023-04-03T04:47:43;7.00;57.50
19403;DHT22;9837;48.888;8.998;2023-04-03T04:50:10;7.10;57.00
19403;DHT22;9837;48.888;8.998;2023-04-03T04:52:37;7.00;56.80
19403;DHT22;9837;48.888;8.998;2023-04-03T04:55:03;6.90;56.50
19403;DHT22;9837;48.888;8.998;2023-04-03T04:57:28;6.70;56.50
19403;DHT22;9837;48.888;8.998;2023-04-03T04:59:54;6.80;56.50
19403;DHT22;9837;48.888;8.998;2023-04-03T05:02:19;7.00;56.00
19403;DHT22;9837;48.888;8.998;2023-04-03T05:04:45;7.00;56.70
19403;DHT22;9837;48.888;8.998;2023-04-03T05:09:36;7.30;56.20
19403;DHT22;9837;48.888;8.998;2023-04-03T05:12:02;7.40;55.90
19403;DHT22;9837;48.888;8.998;2023-04-03T05:14:28;7.40;56.40
19403;DHT22;9837;48.888;8.998;2023-04-03T05:16:54;7.00;57.20
19403;DHT22;9837;48.888;8.998;2023-04-03T05:19:20;7.00;57.80
19403;DHT22;9837;48.888;8.998;2023-04-03T05:21:47;6.90;58.00
19403;DHT22;9837;48.888;8.998;2023-04-03T05:24:13;6.80;58.60
19403;DHT22;9837;48.888;8.998;2023-04-03T05:29:04;6.90;58.20
19403;DHT22;9837;48.888;8.998;2023-04-03T05:33:56;8.30;56.00
19403;DHT22;9837;48.888;8.998;2023-04-03T05:36:22;8.30;56.50
19403;DHT22;9837;48.888;8.998;2023-04-03T05:38:48;8.80;54.20
19403;DHT22;9837;48.888;8.998;2023-04-03T05:41:14;8.50;53.30
19403;DHT22;9837;48.888;8.998;2023-04-03T05:43:40;8.50;53.90
19403;DHT22;9837;48.888;8.998;2023-04-03T05:46:17;10.70;56.20
19403;DHT22;9837;48.888;8.998;2023-04-03T05:48:43;7.90;55.70
19403;DHT22;9837;48.888;8.998;2023-04-03T05:51:15;8.00;54.50
19403;DHT22;9837;48.888;8.998;2023-04-03T05:53:41;8.00;54.80
19403;DHT22;9837;48.888;8.998;2023-04-03T05:56:07;7.90;55.30
19403;DHT22;9837;48.888;8.998;2023-04-03T05:58:33;8.10;55.10
19403;DHT22;9837;48.888;8.998;2023-04-03T06:00:58;8.00;55.10
19403;DHT22;9837;48.888;8.998;2023-04-03T06:03:24;8.00;54.90
19403;DHT22;9837;48.888;8.998;2023-04-03T06:05:49;8.00;55.40
19403;DHT22;9837;48.888;8.998;2023-04-03T06:08:16;8.00;54.80
19403;DHT22;9837;48.888;8.998;2023-04-03T06:13:08;7.70;55.50
19403;DHT22;9837;48.888;8.998;2023-04-03T06:16:20;7.50;55.80
19403;DHT22;9837;48.888;8.998;2023-04-03T06:19:33;7.30;56.70
19403;DHT22;9837;48.888;8.998;2023-04-03T06:22:55;7.30;56.60
19403;DHT22;9837;48.888;8.998;2023-04-03T06:30:34;7.40;57.00
19403;DHT22;9837;48.888;8.998;2023-04-03T06:36:31;7.50;56.80
19403;DHT22;9837;48.888;8.998;2023-04-03T06:42:24;7.20;57.40
19403;DHT22;9837;48.888;8.998;2023-04-03T06:45:20;7.20;58.10
19403;DHT22;9837;48.888;8.998;2023-04-03T06:48:21;7.50;57.30
19403;DHT22;9837;48.888;8.998;2023-04-03T06:51:14;7.60;57.10
19403;DHT22;9837;48.888;8.998;2023-04-03T06:54:28;7.60;57.40
19403;DHT22;9837;48.888;8.998;2023-04-03T07:00:48;7.20;57.50
19403;DHT22;9837;48.888;8.998;2023-04-03T07:03:26;7.20;57.90
19403;DHT22;9837;48.888;8.998;2023-04-03T07:06:18;7.30;58.10
19403;DHT22;9837;48.888;8.998;2023-04-03T07:09:18;7.40;57.30
19403;DHT22;9837;48.888;8.998;2023-04-03T07:12:08;7.30;58.40
19403;DHT22;9837;48.888;8.998;2023-04-03T07:24:36;8.00;57.30
19403;DHT22;9837;48.888;8.998;2023-04-03T07:37:06;8.50;55.60
19403;DHT22;9837;48.888;8.998;2023-04-03T07:39:49;8.50;55.50
19403;DHT22;9837;48.888;8.998;2023-04-03T07:49:04;9.40;54.70
19403;DHT22;9837;48.888;8.998;2023-04-03T07:52:06;8.70;55.00
19403;DHT22;9837;48.888;8.998;2023-04-03T07:57:45;8.90;55.00
19403;DHT22;9837;48.888;8.998;2023-04-03T08:00:42;8.60;55.00
19403;DHT22;9837;48.888;8.998;2023-04-03T08:03:51;8.40;56.00
19403;DHT22;9837;48.888;8.998;2023-04-03T08:06:48;7.90;56.90
19403;DHT22;9837;48.888;8.998;2023-04-03T08:09:23;8.10;57.50
19403;DHT22;9837;48.888;8.998;2023-04-03T08:12:06;8.10;57.60
19403;DHT22;9837;48.888;8.998;2023-04-03T08:14:42;7.70;58.20
19403;DHT22;9837;48.888;8.998;2023-04-03T08:23:52;8.20;57.20
19403;DHT22;9837;48.888;8.998;2023-04-03T08:32:35;9.10;54.90
19403;DHT22;9837;48.888;8.998;2023-04-03T08:51:22;8.80;56.60
19403;DHT22;9837;48.888;8.998;2023-04-03T08:54:37;8.90;55.20
19403;DHT22;9837;48.888;8.998;2023-04-03T08:57:44;8.80;55.90
19403;DHT22;9837;48.888;8.998;2023-04-03T09:03:44;8.80;56.60
19403;DHT22;9837;48.888;8.998;2023-04-03T09:14:36;8.00;56.80
19403;DHT22;9837;48.888;8.998;2023-04-03T09:17:26;8.40;57.10
19403;DHT22;9837;48.888;8.998;2023-04-03T09:22:41;8.60;55.90
19403;DHT22;9837;48.888;8.998;2023-04-03T09:25:27;8.50;56.00
19403;DHT22;9837;48.888;8.998;2023-04-03T09:30:22;8.50;55.00
19403;DHT22;9837;48.888;8.998;2023-04-03T09:32:52;8.60;55.80
19403;DHT22;9837;48.888;8.998;2023-04-03T09:38:20;8.70;54.00
19403;DHT22;9837;48.888;8.998;2023-04-03T09:41:38;9.10;54.30
19403;DHT22;9837;48.888;8.998;2023-04-03T09:44:25;9.40;53.60
19403;DHT22;9837;48.888;8.998;2023-04-03T09:46:55;9.40;52.30
19403;DHT22;9837;48.888;8.998;2023-04-03T09:49:24;9.20;53.10
19403;DHT22;9837;48.888;8.998;2023-04-03T09:54:37;8.60;54.30
19403;DHT22;9837;48.888;8.998;2023-04-03T09:57:13;8.70;54.30
19403;DHT22;9837;48.888;8.998;2023-04-03T10:00:00;8.70;54.50
19403;DHT22;9837;48.888;8.998;2023-04-03T10:02:43;9.20;53.90
19403;DHT22;9837;48.888;8.998;2023-04-03T10:05:34;9.30;54.60
19403;DHT22;9837;48.888;8.998;2023-04-03T10:10:46;9.60;52.00
19403;DHT22;9837;48.888;8.998;2023-04-03T10:13:20;9.60;53.00
19403;DHT22;9837;48.888;8.998;2023-04-03T10:16:09;9.50;51.60
19403;DHT22;9837;48.888;8.998;2023-04-03T10:22:08;9.30;52.80
19403;DHT22;9837;48.888;8.998;2023-04-03T10:25:21;8.90;53.40
19403;DHT22;9837;48.888;8.998;2023-04-03T10:53:10;9.00;53.10
19403;DHT22;9837;48.888;8.998;2023-04-03T10:56:46;9.40;52.90
19403;DHT22;9837;48.888;8.998;2023-04-03T10:59:44;9.40;52.00
19403;DHT22;9837;48.888;8.998;2023-04-03T11:07:51;9.10;53.50
19403;DHT22;9837;48.888;8.998;2023-04-03T11:10:41;9.30;52.40
19403;DHT22;9837;48.888;8.998;2023-04-03T11:18:10;8.90;52.70
19403;DHT22;9837;48.888;8.998;2023-04-03T11:23:26;9.10;51.60
19403;DHT22;9837;48.888;8.998;2023-04-03T11:25:59;9.30;52.20
19403;DHT22;9837;48.888;8.998;2023-04-03T11:36:48;8.80;52.10
19403;DHT22;9837;48.888;8.998;2023-04-03T11:39:29;9.10;52.90
19403;DHT22;9837;48.888;8.998;2023-04-03T11:42:14;9.30;50.80
19403;DHT22;9837;48.888;8.998;2023-04-03T11:47:10;8.90;49.90
19403;DHT22;9837;48.888;8.998;2023-04-03T12:16:09;9.90;49.00
19403;DHT22;9837;48.888;8.998;2023-04-03T12:32:05;9.80;47.70
19403;DHT22;9837;48.888;8.998;2023-04-03T12:45:59;9.90;47.50
19403;DHT22;9837;48.888;8.998;2023-04-03T12:48:29;10.20;47.00
19403;DHT22;9837;48.888;8.998;2023-04-03T12:53:25;10.00;45.20
19403;DHT22;9837;48.888;8.998;2023-04-03T12:55:56;9.90;45.90
19403;DHT22;9837;48.888;8.998;2023-04-03T12:58:27;9.50;46.10
19403;DHT22;9837;48.888;8.998;2023-04-03T13:03:42;9.60;48.40
19403;DHT22;9837;48.888;8.998;2023-04-03T13:06:30;9.40;47.30
19403;DHT22;9837;48.888;8.998;2023-04-03T13:08:59;9.70;47.30
19403;DHT22;9837;48.888;8.998;2023-04-03T13:11:29;9.90;46.90
19403;DHT22;9837;48.888;8.998;2023-04-03T13:14:04;10.20;46.60
19403;DHT22;9837;48.888;8.998;2023-04-03T13:21:31;9.90;46.00
19403;DHT22;9837;48.888;8.998;2023-04-03T13:24:00;9.70;45.50
19403;DHT22;9837;48.888;8.998;2023-04-03T13:27:20;9.60;45.70
19403;DHT22;9837;48.888;8.998;2023-04-03T13:33:31;10.20;44.90
19403;DHT22;9837;48.888;8.998;2023-04-03T13:36:39;10.70;43.50
19403;DHT22;9837;48.888;8.998;2023-04-03T13:39:44;10.60;43.90
19403;DHT22;9837;48.888;8.998;2023-04-03T13:42:27;10.10;44.00
19403;DHT22;9837;48.888;8.998;2023-04-03T14:01:32;10.20;44.40
19403;DHT22;9837;48.888;8.998;2023-04-03T14:04:51;10.50;44.40
19403;DHT22;9837;48.888;8.998;2023-04-03T14:15:31;10.30;43.80
19403;DHT22;9837;48.888;8.998;2023-04-03T14:29:18;9.20;44.50
19403;DHT22;9837;48.888;8.998;2023-04-03T14:32:33;9.60;44.40
19403;DHT22;9837;48.888;8.998;2023-04-03T14:38:36;9.50;43.90
19403;DHT22;9837;48.888;8.998;2023-04-03T14:41:34;9.50;43.60
19403;DHT22;9837;48.888;8.998;2023-04-03T14:48:33;9.80;43.70
19403;DHT22;9837;48.888;8.998;2023-04-03T14:56:43;9.60;43.70
19403;DHT22;9837;48.888;8.998;2023-04-03T14:59:22;9.80;43.80
19403;DHT22;9837;48.888;8.998;2023-04-03T15:06:03;9.80;42.90
19403;DHT22;9837;48.888;8.998;2023-04-03T15:08:55;9.80;42.90
19403;DHT22;9837;48.888;8.998;2023-04-03T15:16:19;9.60;43.30
19403;DHT22;9837;48.888;8.998;2023-04-03T15:21:45;9.10;43.70
19403;DHT22;9837;48.888;8.998;2023-04-03T16:06:26;9.20;42.90
19403;DHT22;9837;48.888;8.998;2023-04-03T16:08:54;9.40;43.60
19403;DHT22;9837;48.888;8.998;2023-04-03T16:11:23;9.50;43.60
19403;DHT22;9837;48.888;8.998;2023-04-03T16:13:49;10.00;42.30
19403;DHT22;9837;48.888;8.998;2023-04-03T16:16:15;10.20;41.80
19403;DHT22;9837;48.888;8.998;2023-04-03T16:18:40;10.20;42.40
19403;DHT22;9837;48.888;8.998;2023-04-03T16:21:06;10.60;42.00
19403;DHT22;9837;48.888;8.998;2023-04-03T16:23:33;10.60;41.80
19403;DHT22;9837;48.888;8.998;2023-04-03T16:25:59;10.80;40.90
19403;DHT22;9837;48.888;8.998;2023-04-03T16:28:24;10.70;40.20
19403;DHT22;9837;48.888;8.998;2023-04-03T16:30:50;10.80;40.20
19403;DHT22;9837;48.888;8.998;2023-04-03T16:33:16;10.70;40.20
19403;DHT22;9837;48.888;8.998;2023-04-03T16:35:42;10.50;40.70
19403;DHT22;9837;48.888;8.998;2023-04-03T16:40:34;10.00;42.10
19403;DHT22;9837;48.888;8.998;2023-04-03T16:43:01;10.00;42.80
19403;DHT22;9837;48.888;8.998;2023-04-03T16:50:19;10.10;42.10
19403;DHT22;9837;48.888;8.998;2023-04-03T16:52:47;10.40;43.10
19403;DHT22;9837;48.888;8.998;2023-04-03T16:55:13;10.40;42.50
19403;DHT22;9837;48.888;8.998;2023-04-03T16:57:38;10.20;42.40
19403;DHT22;9837;48.888;8.998;2023-04-03T17:00:04;10.10;43.20
19403;DHT22;9837;48.888;8.998;2023-04-03T17:02:30;10.10;42.60
19403;DHT22;9837;48.888;8.998;2023-04-03T17:04:56;10.10;43.20
19403;DHT22;9837;48.888;8.998;2023-04-03T17:07:24;9.90;42.30
19403;DHT22;9837;48.888;8.998;2023-04-03T17:09:49;9.80;42.30
19403;DHT22;9837;48.888;8.998;2023-04-03T17:12:15;9.50;43.20
19403;DHT22;9837;48.888;8.998;2023-04-03T17:14:41;9.40;43.70
19403;DHT22;9837;48.888;8.998;2023-04-03T17:17:07;9.60;43.90
19403;DHT22;9837;48.888;8.998;2023-04-03T17:19:34;9.70;43.50
19403;DHT22;9837;48.888;8.998;2023-04-03T17:22:00;9.70;43.50
19403;DHT22;9837;48.888;8.998;2023-04-03T17:24:26;9.30;43.90
19403;DHT22;9837;48.888;8.998;2023-04-03T17:26:51;9.20;44.40
19403;DHT22;9837;48.888;8.998;2023-04-03T17:29:17;9.10;43.20
19403;DHT22;9837;48.888;8.998;2023-04-03T17:31:42;9.10;43.80
19403;DHT22;9837;48.888;8.998;2023-04-03T17:34:08;9.50;43.90
19403;DHT22;9837;48.888;8.998;2023-04-03T17:36:36;9.70;43.30
19403;DHT22;9837;48.888;8.998;2023-04-03T17:39:02;9.70;43.60
19403;DHT22;9837;48.888;8.998;2023-04-03T17:41:27;9.60;44.00
19403;DHT22;9837;48.888;8.998;2023-04-03T17:43:53;9.40;42.30
19403;DHT22;9837;48.888;8.998;2023-04-03T17:46:23;9.10;42.80
19403;DHT22;9837;48.888;8.998;2023-04-03T17:48:49;8.80;43.40
19403;DHT22;9837;48.888;8.998;2023-04-03T17:51:17;8.80;43.90
19403;DHT22;9837;48.888;8.998;2023-04-03T17:53:44;8.60;44.90
19403;DHT22;9837;48.888;8.998;2023-04-03T17:56:13;8.60;45.40
19403;DHT22;9837;48.888;8.998;2023-04-03T17:58:39;8.80;45.20
19403;DHT22;9837;48.888;8.998;2023-04-03T18:01:09;9.00;45.00
19403;DHT22;9837;48.888;8.998;2023-04-03T18:03:35;8.90;44.30
19403;DHT22;9837;48.888;8.998;2023-04-03T18:06:03;9.10;44.40
19403;DHT22;9837;48.888;8.998;2023-04-03T18:08:31;8.80;44.00
19403;DHT22;9837;48.888;8.998;2023-04-03T18:10:57;8.80;44.30
19403;DHT22;9837;48.888;8.998;2023-04-03T18:13:23;8.70;43.90
19403;DHT22;9837;48.888;8.998;2023-04-03T18:18:14;8.60;43.90
19403;DHT22;9837;48.888;8.998;2023-04-03T18:20:40;8.40;44.10
19403;DHT22;9837;48.888;8.998;2023-04-03T18:30:24;8.40;43.80
19403;DHT22;9837;48.888;8.998;2023-04-03T18:32:50;8.20;44.40
19403;DHT22;9837;48.888;8.998;2023-04-03T18:35:16;8.20;45.00
19403;DHT22;9837;48.888;8.998;2023-04-03T18:37:42;8.40;45.00
19403;DHT22;9837;48.888;8.998;2023-04-03T18:40:08;8.50;45.20
19403;DHT22;9837;48.888;8.998;2023-04-03T18:42:33;8.50;44.60
19403;DHT22;9837;48.888;8.998;2023-04-03T18:45:01;8.60;44.40
19403;DHT22;9837;48.888;8.998;2023-04-03T18:54:49;8.20;43.90
19403;DHT22;9837;48.888;8.998;2023-04-03T18:57:15;8.10;44.70
19403;DHT22;9837;48.888;8.998;2023-04-03T18:59:42;7.90;44.20
19403;DHT22;9837;48.888;8.998;2023-04-03T19:02:08;7.80;44.30
19403;DHT22;9837;48.888;8.998;2023-04-03T19:04:34;7.80;44.90
19403;DHT22;9837;48.888;8.998;2023-04-03T19:09:30;7.50;44.90
19403;DHT22;9837;48.888;8.998;2023-04-03T19:11:56;8.00;44.40
19403;DHT22;9837;48.888;8.998;2023-04-03T19:14:22;7.90;44.30
19403;DHT22;9837;48.888;8.998;2023-04-03T19:16:47;7.90;44.70
19403;DHT22;9837;48.888;8.998;2023-04-03T19:19:13;7.80;44.40
19403;DHT22;9837;48.888;8.998;2023-04-03T19:21:38;7.80;45.00
19403;DHT22;9837;48.888;8.998;2023-04-03T19:24:08;7.70;44.80
19403;DHT22;9837;48.888;8.998;2023-04-03T19:28:59;7.90;44.50
19403;DHT22;9837;48.888;8.998;2023-04-03T19:31:25;7.90;44.70
19403;DHT22;9837;48.888;8.998;2023-04-03T19:33:51;7.60;44.70
19403;DHT22;9837;48.888;8.998;2023-04-03T19:38:43;8.90;45.30
19403;DHT22;9837;48.888;8.998;2023-04-03T19:41:14;7.70;45.30
19403;DHT22;9837;48.888;8.998;2023-04-03T19:43:41;7.80;45.00
19403;DHT22;9837;48.888;8.998;2023-04-03T19:46:07;7.70;44.90
19403;DHT22;9837;48.888;8.998;2023-04-03T19:48:33;7.50;45.00
19403;DHT22;9837;48.888;8.998;2023-04-03T19:53:24;7.30;45.40
19403;DHT22;9837;48.888;8.998;2023-04-03T19:55:54;7.40;46.00
19403;DHT22;9837;48.888;8.998;2023-04-03T19:58:20;7.40;45.70
19403;DHT22;9837;48.888;8.998;2023-04-03T20:03:12;7.30;45.80
19403;DHT22;9837;48.888;8.998;2023-04-03T20:08:04;7.40;45.70
19403;DHT22;9837;48.888;8.998;2023-04-03T20:10:29;7.20;46.00
19403;DHT22;9837;48.888;8.998;2023-04-03T20:12:55;7.00;46.50
19403;DHT22;9837;48.888;8.998;2023-04-03T20:15:22;6.90;46.50
19403;DHT22;9837;48.888;8.998;2023-04-03T20:17:48;7.00;46.50
19403;DHT22;9837;48.888;8.998;2023-04-03T20:20:14;7.00;47.10
19403;DHT22;9837;48.888;8.998;2023-04-03T20:22:40;7.10;47.20
19403;DHT22;9837;48.888;8.998;2023-04-03T20:25:10;7.20;47.00
19403;DHT22;9837;48.888;8.998;2023-04-03T20:27:37;7.30;46.40
19403;DHT22;9837;48.888;8.998;2023-04-03T20:30:05;7.20;46.90
19403;DHT22;9837;48.888;8.998;2023-04-03T20:32:33;7.10;46.90
19403;DHT22;9837;48.888;8.998;2023-04-03T20:34:59;6.80;47.60
19403;DHT22;9837;48.888;8.998;2023-04-03T20:37:24;6.70;47.60
19403;DHT22;9837;48.888;8.998;2023-04-03T20:39:50;6.70;48.10
19403;DHT22;9837;48.888;8.998;2023-04-03T20:42:16;6.60;48.00
19403;DHT22;9837;48.888;8.998;2023-04-03T20:44:41;6.50;48.50
19403;DHT22;9837;48.888;8.998;2023-04-03T20:47:12;6.70;48.30
19403;DHT22;9837;48.888;8.998;2023-04-03T20:49:38;6.70;48.70
19403;DHT22;9837;48.888;8.998;2023-04-03T20:52:04;6.80;47.60
19403;DHT22;9837;48.888;8.998;2023-04-03T20:54:30;6.80;47.60
19403;DHT22;9837;48.888;8.998;2023-04-03T20:56:55;6.70;48.30
19403;DHT22;9837;48.888;8.998;2023-04-03T20:59:21;6.50;48.60
19403;DHT22;9837;48.888;8.998;2023-04-03T21:01:47;6.30;49.40
19403;DHT22;9837;48.888;8.998;2023-04-03T21:04:28;6.20;49.90
19403;DHT22;9837;48.888;8.998;2023-04-03T21:21:23;4.80;51.90
19403;DHT22;9837;48.888;8.998;2023-04-03T21:23:49;5.40;51.80
19403;DHT22;9837;48.888;8.998;2023-04-03T21:26:16;5.30;52.20
19403;DHT22;9837;48.888;8.998;2023-04-03T21:31:09;5.00;52.30
19403;DHT22;9837;48.888;8.998;2023-04-03T21:33:38;5.00;53.50
19403;DHT22;9837;48.888;8.998;2023-04-03T21:36:04;5.10;52.20
19403;DHT22;9837;48.888;8.998;2023-04-03T21:38:30;5.10;52.00
19403;DHT22;9837;48.888;8.998;2023-04-03T21:40:56;5.10;51.70
19403;DHT22;9837;48.888;8.998;2023-04-03T21:43:23;5.30;51.90
19403;DHT22;9837;48.888;8.998;2023-04-03T21:45:52;5.40;51.60
19403;DHT22;9837;48.888;8.998;2023-04-03T21:48:19;5.40;51.40
19403;DHT22;9837;48.888;8.998;2023-04-03T21:50:45;5.50;51.50
19403;DHT22;9837;48.888;8.998;2023-04-03T21:58:03;5.20;51.00
19403;DHT22;9837;48.888;8.998;2023-04-03T22:00:29;5.20;51.60
19403;DHT22;9837;48.888;8.998;2023-04-03T22:02:54;5.20;51.20
19403;DHT22;9837;48.888;8.998;2023-04-03T22:05:20;5.20;51.30
19403;DHT22;9837;48.888;8.998;2023-04-03T22:07:46;5.10;51.80
19403;DHT22;9837;48.888;8.998;2023-04-03T22:10:12;5.10;51.30
19403;DHT22;9837;48.888;8.998;2023-04-03T22:12:40;5.30;51.70
19403;DHT22;9837;48.888;8.998;2023-04-03T22:15:07;5.30;50.90
19403;DHT22;9837;48.888;8.998;2023-04-03T22:17:32;5.30;51.30
19403;DHT22;9837;48.888;8.998;2023-04-03T22:19:58;5.30;51.50
19403;DHT22;9837;48.888;8.998;2023-04-03T22:22:23;5.30;50.90
19403;DHT22;9837;48.888;8.998;2023-04-03T22:24:49;5.30;51.50
19403;DHT22;9837;48.888;8.998;2023-04-03T22:27:16;5.50;50.60
19403;DHT22;9837;48.888;8.998;2023-04-03T22:29:42;5.50;51.10
19403;DHT22;9837;48.888;8.998;2023-04-03T22:32:07;5.50;50.20
19403;DHT22;9837;48.888;8.998;2023-04-03T22:34:33;5.50;50.70
19403;DHT22;9837;48.888;8.998;2023-04-03T22:37:02;5.10;51.00
19403;DHT22;9837;48.888;8.998;2023-04-03T22:39:28;5.10;51.60
19403;DHT22;9837;48.888;8.998;2023-04-03T22:41:53;5.50;50.70
19403;DHT22;9837;48.888;8.998;2023-04-03T22:44:19;5.40;51.00
19403;DHT22;9837;48.888;8.998;2023-04-03T22:46:44;5.20;51.00
19403;DHT22;9837;48.888;8.998;2023-04-03T22:49:10;5.20;51.50
19403;DHT22;9837;48.888;8.998;2023-04-03T22:51:36;5.20;51.40
19403;DHT22;9837;48.888;8.998;2023-04-03T22:54:02;5.00;52.00
19403;DHT22;9837;48.888;8.998;2023-04-03T22:56:27;4.80;51.90
19403;DHT22;9837;48.888;8.998;2023-04-03T22:58:53;4.70;52.10
19403;DHT22;9837;48.888;8.998;2023-04-03T23:01:19;4.60;53.00
19403;DHT22;9837;48.888;8.998;2023-04-03T23:03:48;4.60;52.60
19403;DHT22;9837;48.888;8.998;2023-04-03T23:06:14;4.60;52.70
19403;DHT22;9837;48.888;8.998;2023-04-03T23:08:40;5.70;53.70
19403;DHT22;9837;48.888;8.998;2023-04-03T23:11:07;4.70;52.40
19403;DHT22;9837;48.888;8.998;2023-04-03T23:13:36;4.50;52.10
19403;DHT22;9837;48.888;8.998;2023-04-03T23:16:02;4.50;52.70
19403;DHT22;9837;48.888;8.998;2023-04-03T23:18:29;4.50;52.60
19403;DHT22;9837;48.888;8.998;2023-04-03T23:20:57;4.70;52.90
19403;DHT22;9837;48.888;8.998;2023-04-03T23:23:23;4.80;51.90
19403;DHT22;9837;48.888;8.998;2023-04-03T23:25:57;5.00;52.50
19403;DHT22;9837;48.888;8.998;2023-04-03T23:28:23;5.10;52.30
19403;DHT22;9837;48.888;8.998;2023-04-03T23:30:49;5.10;52.40
19403;DHT22;9837;48.888;8.998;2023-04-03T23:33:21;5.10;52.40